Skip to main content.
 TIME   TEMPERATURE   WINDSPEED   DIRECTION   HUMIDITY   BAROMETER   RAINFALL 
23:31 12.0°C (53.6°F) 9.3 kmh (5.8 mph) WNW 62% 1023.0hPa (30.21 inHg) 0.0mm (0.00 in.)
22:31 12.0°C (53.6 °F) 7.4 kmh (4.6 mph) WNW 66% 1023.0hPa (30.21 inHg) 0.0mm (0.00 in.)
21:31 13.0°C (55.4 °F) 5.6 kmh (3.5 mph) WNW 62% 1023.0hPa (30.21 inHg) 0.0mm (0.00 in.)
20:31 14.0°C (57.2 °F) 7.4 kmh (4.6 mph) WNW 58% 1022.0hPa (30.18 inHg) 0.0mm (0.00 in.)
19:31 15.0°C (59.0 °F) 13.0 kmh (8.1 mph) WNW 54% 1022.0hPa (30.18 inHg) 0.0mm (0.00 in.)
18:31 17.0°C (62.6 °F) 9.3 kmh (5.8 mph) WSW 51% 1022.0hPa (30.18 inHg) 0.0mm (0.00 in.)
17:31 18.0°C (64.4 °F) 13.0 kmh (8.1 mph) SW 42% 1022.0hPa (30.18 inHg) 0.0mm (0.00 in.)
16:31 18.0°C (64.4 °F) 9.3 kmh (5.8 mph) N 27% 1023.0hPa (30.21 inHg) 0.0mm (0.00 in.)
15:31 19.0°C (66.2 °F) 11.1 kmh (6.9 mph) NNE 25% 1023.0hPa (30.21 inHg) 0.0mm (0.00 in.)
14:31 18.0°C (64.4 °F) 13.0 kmh (8.1 mph) NNE 39% 1023.0hPa (30.21 inHg) 0.0mm (0.00 in.)
13:31 17.0°C (62.6 °F) 14.8 kmh (9.2 mph) NNE 45% 1024.0hPa (30.24 inHg) 0.0mm (0.00 in.)
12:31 17.0°C (62.6 °F) 13.0 kmh (8.1 mph) NE 48% 1024.0hPa (30.24 inHg) 0.0mm (0.00 in.)
11:31 16.0°C (60.8 °F) 14.8 kmh (9.2 mph) NE 63% 1025.1hPa (30.27 inHg) 0.0mm (0.00 in.)
10:31 16.0°C (60.8 °F) 16.7 kmh (10.4 mph) NNE 67% 1025.1hPa (30.27 inHg) 0.0mm (0.00 in.)
9:31 15.0°C (59.0 °F) 16.7 kmh (10.4 mph) NNE 72% 1024.0hPa (30.24 inHg) 0.0mm (0.00 in.)
8:31 14.0°C (57.2 °F) 14.8 kmh (9.2 mph) NNE 76% 1024.0hPa (30.24 inHg) 0.0mm (0.00 in.)
7:31 12.0°C (53.6 °F) 7.4 kmh (4.6 mph) NNE 81% 1024.0hPa (30.24 inHg) 0.0mm (0.00 in.)
6:31 12.0°C (53.6 °F) 7.4 kmh (4.6 mph) NE 81% 1024.0hPa (30.24 inHg) 0.0mm (0.00 in.)
5:31 13.0°C (55.4 °F) 7.4 kmh (4.6 mph) NE 76% 1024.0hPa (30.24 inHg) 0.0mm (0.00 in.)
4:31 14.0°C (57.2 °F) 9.3 kmh (5.8 mph) NE 76% 1024.0hPa (30.24 inHg) 0.0mm (0.00 in.)
3:31 14.0°C (57.2 °F) 13.0 kmh (8.1 mph) NE 76% 1024.0hPa (30.24 inHg) 0.0mm (0.00 in.)
2:31 14.0°C (57.2 °F) 7.4 kmh (4.6 mph) NE 76% 1025.1hPa (30.27 inHg) 0.0mm (0.00 in.)
1:31 14.0°C (57.2 °F) 11.1 kmh (6.9 mph) NE 87% 1025.1hPa (30.27 inHg) 0.0mm (0.00 in.)
0:31 14.0°C (57.2 °F) 11.1 kmh (6.9 mph) N 82% 1025.1hPa (30.27 inHg) 0.0mm (0.00 in.)